createdAt,value
2022-12-06T00:02:22.336Z,101810.88
2022-12-06T00:04:52.130Z,101810.91
2022-12-06T00:07:24.654Z,101920.94
2022-12-06T00:09:55.121Z,101928.69
2022-12-06T00:12:26.196Z,101931.19
2022-12-06T00:14:58.034Z,101815.63
2022-12-06T00:17:29.628Z,101929.28
2022-12-06T00:19:59.463Z,101756.50
2022-12-06T00:22:29.996Z,101811.38
2022-12-06T00:25:02.574Z,101734.13
2022-12-06T00:27:36.970Z,101761.06
2022-12-06T00:30:07.508Z,101894.47
2022-12-06T00:32:39.515Z,101645.63
2022-12-06T00:35:09.673Z,101740.78
2022-12-06T00:37:40.429Z,101817.94
2022-12-06T00:40:11.273Z,101788.44
2022-12-06T00:42:47.603Z,101755.22
2022-12-06T00:45:21.428Z,101757.94
2022-12-06T00:47:54.301Z,101831.22
2022-12-06T00:50:24.100Z,101643.97
2022-12-06T00:52:55.051Z,101909.00
2022-12-06T00:55:25.097Z,101747.31
2022-12-06T00:57:56.244Z,101645.88
2022-12-06T01:00:26.466Z,101742.56
2022-12-06T01:03:02.216Z,101707.19
2022-12-06T04:28:57.601Z,101776.56
2022-12-06T04:31:45.673Z,101770.00
2022-12-06T04:34:32.844Z,101782.81
2022-12-06T04:37:19.713Z,101766.91
2022-12-06T04:39:49.067Z,101757.72
2022-12-06T04:42:45.972Z,101774.22
2022-12-06T04:45:16.934Z,101748.50
2022-12-06T04:47:47.619Z,101723.81
2022-12-06T04:50:16.962Z,101765.34
2022-12-06T04:52:46.441Z,101763.63
2022-12-06T04:55:15.598Z,101741.53
2022-12-06T04:57:44.711Z,101761.59
2022-12-06T05:00:14.708Z,101758.13
2022-12-06T05:02:45.590Z,101775.13
2022-12-06T05:05:14.696Z,101773.78
2022-12-06T05:07:43.649Z,101770.03
2022-12-06T05:10:13.305Z,101761.81
2022-12-06T05:12:42.226Z,101738.31
2022-12-06T05:15:14.667Z,101760.81
2022-12-06T05:17:46.201Z,101687.94
2022-12-06T05:20:15.454Z,101749.72
2022-12-06T05:22:44.537Z,101756.91
2022-12-06T05:25:13.475Z,101723.16
2022-12-06T05:27:42.347Z,101727.59
2022-12-06T05:30:12.653Z,101750.25
2022-12-06T05:32:41.512Z,101751.09
2022-12-06T05:35:12.621Z,101757.31
2022-12-06T05:37:41.446Z,101748.16
2022-12-06T05:40:11.813Z,101750.75
2022-12-06T05:42:41.581Z,101733.50
2022-12-06T05:45:11.628Z,101724.66
2022-12-06T05:47:41.027Z,101752.50
2022-12-06T05:50:12.420Z,101733.50
2022-12-06T05:52:41.449Z,101729.91
2022-12-06T05:55:10.782Z,101739.03
2022-12-06T05:57:45.498Z,101737.47
2022-12-06T06:00:17.774Z,101726.19
2022-12-06T06:02:47.271Z,101715.44
2022-12-06T06:05:17.809Z,101681.19
2022-12-06T06:07:47.068Z,101730.09
2022-12-06T06:10:17.095Z,101721.41
2022-12-06T06:12:46.530Z,101726.69
2022-12-06T06:15:16.414Z,101709.69
2022-12-06T06:17:45.739Z,101730.59
2022-12-06T06:20:15.092Z,101724.25
2022-12-06T06:22:45.681Z,101725.00
2022-12-06T06:25:15.034Z,101714.41
2022-12-06T06:27:44.326Z,101705.09
2022-12-06T06:30:15.008Z,101706.78
2022-12-06T06:32:44.362Z,101703.34
2022-12-06T06:35:13.129Z,101702.13
2022-12-06T06:37:42.184Z,101709.63
2022-12-06T06:40:12.954Z,101655.84
2022-12-06T06:42:41.762Z,101693.72
2022-12-06T06:45:11.515Z,101701.09
2022-12-06T06:47:40.295Z,101701.38
2022-12-06T06:50:10.111Z,101692.69
2022-12-06T06:52:38.994Z,101686.44
2022-12-06T06:55:08.673Z,101671.00
2022-12-06T06:57:41.082Z,101682.31
2022-12-06T07:00:11.601Z,101674.13
2022-12-06T07:02:40.321Z,101683.28
2022-12-06T07:05:09.521Z,101684.97
2022-12-06T07:07:38.634Z,101687.28
2022-12-06T07:10:11.788Z,101653.28
2022-12-06T07:12:42.064Z,101658.50
2022-12-06T07:15:12.179Z,101675.91
2022-12-06T07:17:40.984Z,101677.56
2022-12-06T07:20:10.617Z,101677.97
2022-12-06T07:22:39.738Z,101670.78
2022-12-06T07:25:10.819Z,101688.13
2022-12-06T07:27:41.222Z,101690.06
2022-12-06T07:30:15.801Z,101660.63
2022-12-06T07:32:46.009Z,101552.47
2022-12-06T07:35:14.972Z,101680.69
2022-12-06T13:45:50.938Z,101323.97
2022-12-06T13:48:39.868Z,101360.44
2022-12-06T13:51:13.425Z,101355.25
2022-12-06T13:54:31.297Z,101303.16
2022-12-06T13:57:03.875Z,101367.38
2022-12-06T13:59:38.728Z,101359.44
2022-12-06T14:02:53.814Z,101350.84
2022-12-06T14:06:07.479Z,101344.69
2022-12-06T14:08:40.649Z,101352.59
2022-12-06T14:11:17.459Z,101353.50
2022-12-06T14:13:48.798Z,101351.75
2022-12-06T14:16:34.122Z,101343.06
2022-12-06T14:19:33.097Z,101349.84
2022-12-06T14:22:04.733Z,101318.69
2022-12-06T14:24:36.216Z,101344.81
2022-12-06T14:27:07.835Z,101344.72
2022-12-06T14:29:36.870Z,101323.97
2022-12-06T14:32:07.131Z,101337.88
2022-12-06T14:34:38.237Z,101329.09
2022-12-06T14:37:21.983Z,101285.75
2022-12-06T14:39:54.555Z,101311.72
2022-12-06T14:42:41.336Z,101328.94
2022-12-06T14:45:15.984Z,101248.44
2022-12-06T14:47:46.274Z,101298.59
2022-12-06T14:50:28.929Z,101309.09
2022-12-06T14:53:02.162Z,101304.88
2022-12-06T14:55:33.079Z,101330.91
2022-12-06T14:58:04.253Z,101280.59
2022-12-06T15:00:37.494Z,101324.84
2022-12-06T15:03:32.366Z,101263.09
2022-12-06T15:06:19.497Z,101315.28
2022-12-06T15:08:55.263Z,101286.53
2022-12-06T15:12:03.582Z,101277.00
2022-12-06T15:14:47.996Z,101265.78
2022-12-06T15:17:18.736Z,101275.38
2022-12-06T15:19:49.571Z,101310.09
2022-12-06T15:22:24.915Z,101294.47
2022-12-06T15:24:58.033Z,101298.66
2022-12-06T15:27:28.373Z,101200.78
2022-12-06T15:29:57.633Z,101263.06
2022-12-06T15:32:27.533Z,101292.59
2022-12-06T15:34:56.669Z,101276.06
2022-12-06T15:37:44.949Z,101212.91
2022-12-06T15:40:17.504Z,101257.06
2022-12-06T15:42:46.906Z,101243.94
2022-12-06T15:45:17.227Z,101269.13
2022-12-06T15:47:47.202Z,101269.09
2022-12-06T15:50:17.264Z,101263.94
2022-12-06T15:52:46.368Z,101188.56
2022-12-06T15:55:19.836Z,101274.50
2022-12-06T15:57:49.008Z,101224.13
2022-12-06T16:00:18.284Z,101230.94
2022-12-06T16:02:47.491Z,101058.56
2022-12-06T16:05:18.293Z,101270.09
2022-12-06T16:07:47.593Z,101033.47
2022-12-06T16:10:22.573Z,101148.75
2022-12-06T16:13:15.013Z,101260.63
2022-12-06T16:15:44.654Z,100953.78
2022-12-06T16:18:13.849Z,101004.84
2022-12-06T16:20:43.203Z,101245.00
2022-12-06T16:23:56.547Z,101193.72
2022-12-06T16:26:22.970Z,101201.63
2022-12-06T16:28:52.420Z,101259.53
2022-12-06T16:31:22.567Z,101234.97
2022-12-06T22:30:47.793Z,100822.22
2022-12-06T22:33:27.141Z,100818.13
2022-12-06T22:36:09.194Z,100894.91
2022-12-06T22:38:48.473Z,100753.06
2022-12-06T22:41:18.597Z,100721.47
2022-12-06T22:43:56.070Z,100829.03
2022-12-06T22:46:31.899Z,100837.69
2022-12-06T22:49:02.474Z,100882.59
2022-12-06T22:51:33.188Z,100608.13
2022-12-06T22:54:10.400Z,100868.88
2022-12-06T22:56:44.435Z,100865.38
2022-12-06T22:59:13.449Z,100820.31
2022-12-06T23:01:50.202Z,100848.28
2022-12-06T23:04:19.269Z,100762.63
2022-12-06T23:06:52.672Z,100709.94
2022-12-06T23:09:22.144Z,100842.84
2022-12-06T23:11:51.512Z,100816.88
2022-12-06T23:14:20.845Z,100838.59
2022-12-06T23:16:51.455Z,100828.00
2022-12-06T23:19:20.465Z,100841.97
2022-12-06T23:21:51.974Z,100614.72
2022-12-06T23:24:22.373Z,100816.81
2022-12-06T23:26:57.533Z,100819.38
2022-12-06T23:29:27.238Z,100786.06
2022-12-06T23:31:57.648Z,100783.44
2022-12-06T23:34:27.300Z,100790.28
2022-12-06T23:36:57.393Z,100779.75
2022-12-06T23:39:26.313Z,100772.06
2022-12-06T23:41:55.398Z,100817.38
2022-12-06T23:44:25.336Z,100806.31
2022-12-06T23:46:54.599Z,100810.66
2022-12-06T23:49:24.927Z,100635.19
2022-12-06T23:51:54.122Z,100713.81
2022-12-06T23:54:23.091Z,100668.97
2022-12-06T23:56:52.112Z,100818.31
2022-12-06T23:59:21.781Z,100739.59
